EPPO

Poznań-Ławica Airport

Poznań, Poland
METAR EPPO 180700Z 23002KT 2200 BR FEW010 M04/M04 Q1028
Observed Flight Rules
Feb-18 @ 07:00 UTC (16 minutes ago) Instrument Flight Rules
Wind Visibility Clouds Conditions
230° at 2 knots 2,205 meters
  • Few at 1,000' AGL
  • Mist
Temperatures Readings
Current -4°C / 25°F
Dewpoint -4°C / 25°F
Humidity 100%
Altimeter 30.35" Hg
Pressure 1028 hPa
Elevation 92
METAR EPPO 180700Z 23002KT 2200 BR FEW010 M04/M04 Q1028
Observed Flight Rules
Feb-18 @ 07:00 UTC
(16 minutes ago)
IFR
Wind Visibility
230° at 2 knots 2,205 meters
Clouds
  • Few at 1,000' AGL
Conditions
  • Mist
Temperature Dewpoint
-4°C / 25°F -4°C / 25°F
Humidity Altimeter Pressure
100% 30.35" Hg 1028 hPa